Terminal Aerodrome Forecast
Issued by NWS

Home | Current Version | Previous Version | Text Only | Print | Product List | Glossary On
Versions: 1 2 3 4 5 6 7 8 9 10 11 12 13 14 15 16 17 18
000
FTUS43 KAPX 211400 AAB
TAFTVC
TAF AMD
KTVC 211405Z 2114/2212 03009KT P6SM OVC030
     FM211630 02008G15KT P6SM SCT030
     FM220000 07003KT P6SM SKC=

USA.gov is the U.S. government's official web portal to all federal, state and local government web resources and services.